createdAt,value
2022-12-03T00:01:30.523Z,87.40
2022-12-03T00:03:58.979Z,87.81
2022-12-03T00:06:32.909Z,87.52
2022-12-03T00:09:03.073Z,87.55
2022-12-03T00:11:32.270Z,87.79
2022-12-03T00:14:00.654Z,87.28
2022-12-03T00:16:30.481Z,87.42
2022-12-03T00:18:58.899Z,87.72
2022-12-03T00:21:27.293Z,87.67
2022-12-03T00:23:55.620Z,87.55
2022-12-03T00:26:24.036Z,87.49
2022-12-03T00:28:52.499Z,87.49
2022-12-03T00:31:23.293Z,87.46
2022-12-03T00:33:53.553Z,87.62
2022-12-03T00:36:21.931Z,87.73
2022-12-03T00:38:50.327Z,87.53
2022-12-03T00:41:18.702Z,88.00
2022-12-03T00:43:46.964Z,87.69
2022-12-03T00:46:19.855Z,88.03
2022-12-03T00:48:49.855Z,87.91
2022-12-03T00:51:19.636Z,88.03
2022-12-03T00:53:47.987Z,87.99
2022-12-03T00:56:16.427Z,87.61
2022-12-03T00:58:44.789Z,87.43
2022-12-03T01:01:13.354Z,87.74
2022-12-03T01:03:42.107Z,87.49
2022-12-03T01:06:10.525Z,87.41
2022-12-03T01:08:40.985Z,87.62
2022-12-03T01:11:29.590Z,87.74
2022-12-03T01:13:58.127Z,87.51
2022-12-03T01:16:26.543Z,87.35
2022-12-03T01:18:55.087Z,87.39
2022-12-03T01:21:23.648Z,87.37
2022-12-03T01:23:53.499Z,87.52
2022-12-03T01:26:21.911Z,87.41
2022-12-03T01:28:50.651Z,87.49
2022-12-03T01:31:36.590Z,87.55
2022-12-03T01:34:05.555Z,87.66
2022-12-03T01:36:35.200Z,87.20
2022-12-03T01:39:06.305Z,87.58
2022-12-03T01:41:36.791Z,87.25
2022-12-03T01:44:16.109Z,87.89
2022-12-03T01:46:45.045Z,87.47
2022-12-03T01:49:18.188Z,87.44
2022-12-03T01:51:47.094Z,87.45
2022-12-03T01:54:19.718Z,87.12
2022-12-03T01:56:48.836Z,87.50
2022-12-03T01:59:19.144Z,87.47
2022-12-03T02:01:47.778Z,87.30
2022-12-03T02:04:18.266Z,87.34
2022-12-03T02:06:47.140Z,87.43
2022-12-03T02:09:16.874Z,87.52
2022-12-03T02:11:48.131Z,87.14
2022-12-03T02:14:20.331Z,87.29
2022-12-03T02:16:49.180Z,87.21
2022-12-03T02:19:25.372Z,87.45
2022-12-03T02:22:03.360Z,87.25
2022-12-03T02:24:42.021Z,87.55
2022-12-03T02:27:11.780Z,87.39
2022-12-03T02:29:40.352Z,87.36
2022-12-03T02:32:08.860Z,87.49
2022-12-03T02:34:39.660Z,87.48
2022-12-03T02:37:12.944Z,87.60
2022-12-03T02:39:44.817Z,87.53
2022-12-03T02:42:32.570Z,87.89
2022-12-03T02:45:05.587Z,87.74
2022-12-03T02:47:36.704Z,87.53
2022-12-03T02:50:06.427Z,87.62
2022-12-03T02:52:34.888Z,87.74
2022-12-03T02:55:04.948Z,87.91
2022-12-03T02:57:35.988Z,87.91
2022-12-03T03:00:05.959Z,87.63
2022-12-03T03:02:36.565Z,87.69
2022-12-03T03:05:07.899Z,87.82
2022-12-03T03:07:37.021Z,87.76
2022-12-03T03:10:08.186Z,87.97
2022-12-03T03:12:39.533Z,87.82
2022-12-03T03:15:18.287Z,87.75
2022-12-03T03:17:46.738Z,87.87
2022-12-03T03:20:15.694Z,87.76
2022-12-03T03:22:44.895Z,88.13
2022-12-03T03:25:16.706Z,87.96
2022-12-03T03:27:47.168Z,87.94
2022-12-03T03:30:16.787Z,87.76
2022-12-03T03:32:45.284Z,87.55
2022-12-03T03:35:14.777Z,88.01
2022-12-03T03:37:46.191Z,87.60
2022-12-03T03:40:14.624Z,87.72
2022-12-03T03:42:43.356Z,88.21
2022-12-03T03:45:13.732Z,88.01
2022-12-03T03:47:43.508Z,87.62
2022-12-03T03:50:14.986Z,87.97
2022-12-03T03:52:44.821Z,88.04
2022-12-03T03:55:14.162Z,87.75
2022-12-03T03:57:42.546Z,88.09
2022-12-03T04:00:13.550Z,87.79
2022-12-03T04:02:42.007Z,87.71
2022-12-03T04:05:16.422Z,87.98
2022-12-03T04:07:44.861Z,87.71
2022-12-03T04:10:32.171Z,87.62
2022-12-03T04:13:01.146Z,87.87
2022-12-03T04:15:30.999Z,87.58
2022-12-03T04:18:16.939Z,87.70
2022-12-03T04:20:47.488Z,87.78
2022-12-03T04:23:14.793Z,87.92
2022-12-03T04:26:00.572Z,87.84
2022-12-03T04:28:46.473Z,87.81
2022-12-03T04:31:33.818Z,88.06
2022-12-03T04:34:19.795Z,87.73
2022-12-03T04:36:48.662Z,87.84
2022-12-03T04:39:16.970Z,87.48
2022-12-03T04:41:45.446Z,87.64
2022-12-03T04:44:31.658Z,87.33
2022-12-03T04:47:01.576Z,87.86
2022-12-03T04:49:29.881Z,87.35
2022-12-03T04:51:58.599Z,87.61
2022-12-03T04:54:27.494Z,87.51
2022-12-03T04:56:57.114Z,87.94
2022-12-03T04:59:25.483Z,87.74
2022-12-03T05:01:54.127Z,87.31
2022-12-03T05:04:24.195Z,87.25
2022-12-03T05:06:52.793Z,87.54
2022-12-03T05:09:21.242Z,87.39
2022-12-03T05:11:49.566Z,87.49
2022-12-03T05:14:18.127Z,87.64
2022-12-03T05:16:46.514Z,87.56
2022-12-03T05:19:14.866Z,87.69
2022-12-03T05:21:43.679Z,87.64
2022-12-03T05:24:12.048Z,87.38
2022-12-03T05:26:40.423Z,87.31
2022-12-03T05:29:08.880Z,87.62
2022-12-03T05:31:37.191Z,87.72
2022-12-03T05:34:05.975Z,87.65
2022-12-03T05:36:34.499Z,87.72
2022-12-03T05:39:04.232Z,87.77
2022-12-03T05:41:50.118Z,87.42
2022-12-03T05:44:20.727Z,87.66
2022-12-03T05:46:49.242Z,87.47
2022-12-03T05:49:17.835Z,87.61
2022-12-03T05:51:46.223Z,87.49
2022-12-03T05:54:16.035Z,87.53
2022-12-03T05:56:44.367Z,87.44
2022-12-03T05:59:12.734Z,87.49
2022-12-03T06:01:41.055Z,87.46
2022-12-03T06:04:09.427Z,87.48
2022-12-03T06:06:37.816Z,87.45
2022-12-03T06:09:06.860Z,87.14
2022-12-03T06:11:37.259Z,87.71
2022-12-03T06:14:05.943Z,87.57
2022-12-03T06:16:34.379Z,87.55
2022-12-03T06:19:02.779Z,87.53
2022-12-03T06:21:31.149Z,87.32
2022-12-03T06:24:00.002Z,87.32
2022-12-03T06:26:30.051Z,87.28
2022-12-03T06:28:59.907Z,87.24
2022-12-03T06:31:28.268Z,87.17
2022-12-03T06:33:56.663Z,86.99
2022-12-03T06:36:26.155Z,86.95
2022-12-03T06:38:54.510Z,87.02
2022-12-03T06:41:22.880Z,87.22
2022-12-03T06:43:51.284Z,87.09
2022-12-03T06:46:21.097Z,87.13
2022-12-03T06:48:49.554Z,86.98
2022-12-03T06:51:17.918Z,87.39
2022-12-03T06:53:46.180Z,87.49
2022-12-03T06:56:15.483Z,87.26
2022-12-03T06:58:46.279Z,86.99
2022-12-03T07:01:14.891Z,87.19
2022-12-03T07:03:44.529Z,87.19
2022-12-03T07:06:12.975Z,87.28
2022-12-03T07:08:41.561Z,87.13
2022-12-03T07:11:30.079Z,86.90
2022-12-03T07:14:04.719Z,87.19
2022-12-03T07:16:34.401Z,86.80
2022-12-03T07:19:04.689Z,87.00
2022-12-03T07:21:33.517Z,86.83
2022-12-03T07:24:02.322Z,86.68
2022-12-03T07:26:30.708Z,87.02
2022-12-03T07:28:59.394Z,86.78
2022-12-03T07:31:27.908Z,86.83
2022-12-03T07:33:56.391Z,86.64
2022-12-03T07:36:26.334Z,86.76
2022-12-03T07:38:54.707Z,87.10
2022-12-03T07:41:23.135Z,86.90
2022-12-03T07:43:51.719Z,86.96
2022-12-03T07:46:20.252Z,86.71
2022-12-03T07:48:48.619Z,86.96
2022-12-03T07:51:16.933Z,87.10
2022-12-03T07:53:46.639Z,87.00
2022-12-03T07:56:14.983Z,87.05
2022-12-03T07:58:43.316Z,87.00
2022-12-03T08:01:11.722Z,86.59
2022-12-03T08:03:40.140Z,86.74
2022-12-03T08:06:08.799Z,87.02
2022-12-03T08:08:37.162Z,86.67
2022-12-03T08:11:07.251Z,87.13
2022-12-03T08:13:36.107Z,86.86
2022-12-03T08:16:16.877Z,86.70
2022-12-03T08:18:46.554Z,87.08
2022-12-03T08:21:17.065Z,86.92
2022-12-03T08:23:45.876Z,86.92
2022-12-03T08:26:23.383Z,86.94
2022-12-03T08:28:52.035Z,87.05
2022-12-03T08:31:27.989Z,86.85
2022-12-03T08:34:07.689Z,87.06
2022-12-03T08:36:36.535Z,86.86
2022-12-03T08:39:29.217Z,87.05
2022-12-03T08:42:27.671Z,86.93
2022-12-03T08:44:56.510Z,87.23
2022-12-03T08:47:25.812Z,86.89
2022-12-03T08:49:58.084Z,86.91
2022-12-03T08:52:32.572Z,86.55
2022-12-03T08:55:03.887Z,86.96
2022-12-03T08:57:35.881Z,87.00
2022-12-03T09:00:19.591Z,87.23
2022-12-03T09:02:52.310Z,87.17
2022-12-03T09:05:23.335Z,86.96
2022-12-03T09:07:51.786Z,86.72
2022-12-03T09:10:20.292Z,87.11
2022-12-03T09:12:50.411Z,86.55
2022-12-03T09:15:18.893Z,86.79
2022-12-03T09:17:47.236Z,86.84
2022-12-03T09:20:16.158Z,87.05
2022-12-03T09:22:44.908Z,86.46
2022-12-03T09:25:13.271Z,86.88
2022-12-03T09:27:42.563Z,86.52
2022-12-03T09:30:13.126Z,86.73
2022-12-03T09:32:43.570Z,86.68
2022-12-03T09:35:12.461Z,86.75
2022-12-03T09:37:40.965Z,86.69
2022-12-03T09:40:10.973Z,86.82
2022-12-03T09:42:39.750Z,86.80
2022-12-03T09:45:12.349Z,87.08
2022-12-03T09:47:45.868Z,87.01
2022-12-03T09:50:15.734Z,87.06
2022-12-03T09:52:45.165Z,87.11
2022-12-03T09:55:18.963Z,86.98
2022-12-03T09:57:47.476Z,87.14
2022-12-03T10:00:18.816Z,87.28
2022-12-03T10:02:49.768Z,87.16
2022-12-03T10:05:20.456Z,86.82
2022-12-03T10:07:49.659Z,87.29
2022-12-03T10:10:21.248Z,86.74
2022-12-03T10:12:50.070Z,87.15
2022-12-03T10:15:22.942Z,87.32
2022-12-03T10:17:55.222Z,86.87
2022-12-03T10:20:25.726Z,86.61
2022-12-03T10:22:54.077Z,86.77
2022-12-03T10:25:24.017Z,86.70
2022-12-03T10:28:00.453Z,86.77
2022-12-03T10:30:29.750Z,87.00
2022-12-03T10:33:02.645Z,87.07
2022-12-03T10:35:39.775Z,87.09
2022-12-03T10:38:19.547Z,87.08
2022-12-03T10:40:48.544Z,86.77
2022-12-03T10:43:22.725Z,86.23
2022-12-03T10:45:52.390Z,86.39
2022-12-03T10:48:25.562Z,86.30
2022-12-03T10:50:55.478Z,86.80
2022-12-03T10:53:27.375Z,86.81
2022-12-03T10:55:59.595Z,86.24
2022-12-03T10:58:30.142Z,86.72
2022-12-03T11:01:00.299Z,86.84
2022-12-03T11:03:34.766Z,86.89
2022-12-03T11:06:04.087Z,86.82
2022-12-03T11:08:35.611Z,86.81
2022-12-03T11:11:07.457Z,86.72
2022-12-03T11:13:52.424Z,86.48
2022-12-03T11:17:11.962Z,86.35
2022-12-03T11:19:47.866Z,86.75
2022-12-03T11:22:27.264Z,86.49
2022-12-03T11:25:32.916Z,85.91
2022-12-03T11:28:46.955Z,86.31
2022-12-03T11:31:38.131Z,86.36
2022-12-03T11:34:49.280Z,86.36
2022-12-03T11:37:26.503Z,86.16
2022-12-03T11:40:26.641Z,86.27
2022-12-03T11:42:55.325Z,86.53
2022-12-03T11:45:35.833Z,86.42
2022-12-03T11:48:14.030Z,86.43
2022-12-03T11:50:44.353Z,86.05
2022-12-03T11:53:22.760Z,86.13
2022-12-03T11:56:06.081Z,85.77
2022-12-03T11:58:35.300Z,85.60
2022-12-03T12:01:05.802Z,85.28
2022-12-03T12:03:36.576Z,85.32
2022-12-03T12:06:07.600Z,85.42
2022-12-03T12:08:40.254Z,85.65
2022-12-03T12:11:18.917Z,85.88
2022-12-03T12:13:51.908Z,85.77
2022-12-03T12:16:53.772Z,85.54
2022-12-03T12:19:32.854Z,85.32
2022-12-03T12:22:21.474Z,85.46
2022-12-03T12:24:52.622Z,85.40
2022-12-03T12:27:22.722Z,85.78
2022-12-03T12:29:55.763Z,85.32
2022-12-03T12:32:27.700Z,85.49
2022-12-03T12:35:00.445Z,85.68
2022-12-03T12:37:35.214Z,85.60
2022-12-03T12:40:12.737Z,85.56
2022-12-03T12:42:49.480Z,85.41
2022-12-03T12:45:20.309Z,85.50
2022-12-03T12:47:51.280Z,85.06
2022-12-03T12:50:20.647Z,85.07
2022-12-03T12:52:52.442Z,85.18
2022-12-03T12:55:24.127Z,85.48
2022-12-03T12:57:52.868Z,85.30
2022-12-03T13:00:23.772Z,85.19
2022-12-03T13:02:55.725Z,85.53
2022-12-03T13:05:27.818Z,85.57
2022-12-03T13:08:10.093Z,85.02
2022-12-03T13:10:46.619Z,85.20
2022-12-03T13:13:24.969Z,85.53
2022-12-03T13:16:02.101Z,85.58
2022-12-03T13:18:48.003Z,85.45
2022-12-03T13:21:33.282Z,85.13
2022-12-03T13:24:02.284Z,85.52
2022-12-03T13:26:39.714Z,85.62
2022-12-03T13:29:14.512Z,85.10
2022-12-03T13:31:49.881Z,85.38
2022-12-03T13:34:23.107Z,85.46
2022-12-03T13:36:57.638Z,85.06
2022-12-03T13:39:30.722Z,85.53
2022-12-03T13:42:31.673Z,85.07
2022-12-03T13:45:02.397Z,85.04
2022-12-03T13:47:30.800Z,85.19
2022-12-03T13:50:03.667Z,85.02
2022-12-03T13:52:36.511Z,85.01
2022-12-03T13:55:07.763Z,84.83
2022-12-03T13:57:37.888Z,85.11
2022-12-03T14:00:07.875Z,85.49
2022-12-03T14:02:36.833Z,85.07
2022-12-03T14:05:09.110Z,85.60
2022-12-03T14:07:38.386Z,85.53
2022-12-03T14:10:08.627Z,85.68
2022-12-03T14:12:39.865Z,85.46
2022-12-03T14:15:10.727Z,85.51
2022-12-03T14:17:39.187Z,85.28
2022-12-03T14:20:09.111Z,85.56
2022-12-03T14:22:38.149Z,85.69
2022-12-03T14:25:07.923Z,85.80
2022-12-03T14:27:39.425Z,85.33
2022-12-03T14:30:09.023Z,85.50
2022-12-03T14:32:37.581Z,85.34
2022-12-03T14:35:09.869Z,85.59
2022-12-03T14:37:38.891Z,85.88
2022-12-03T14:40:09.161Z,85.58
2022-12-03T14:42:39.234Z,85.63
2022-12-03T14:45:08.599Z,85.60
2022-12-03T14:47:36.995Z,85.29
2022-12-03T14:50:06.264Z,85.54
2022-12-03T14:52:34.628Z,85.77
2022-12-03T14:55:03.144Z,85.54
2022-12-03T14:57:31.539Z,85.72
2022-12-03T15:00:01.500Z,85.49
2022-12-03T15:02:30.334Z,85.68
2022-12-03T15:04:58.855Z,85.82
2022-12-03T15:07:27.167Z,85.95
2022-12-03T15:09:55.753Z,85.90
2022-12-03T15:12:24.344Z,85.56
2022-12-03T15:14:52.969Z,85.78
2022-12-03T15:17:30.882Z,85.43
2022-12-03T15:19:59.993Z,85.43
2022-12-03T15:22:28.316Z,85.77
2022-12-03T15:24:56.822Z,85.68
2022-12-03T15:27:25.172Z,85.54
2022-12-03T15:29:53.686Z,85.95
2022-12-03T15:32:23.520Z,85.60
2022-12-03T15:34:52.110Z,85.46
2022-12-03T15:37:20.388Z,85.88
2022-12-03T15:39:49.147Z,85.90
2022-12-03T15:42:17.585Z,85.90
2022-12-03T15:44:45.864Z,85.83
2022-12-03T15:47:14.320Z,85.82
2022-12-03T15:49:44.060Z,85.97
2022-12-03T15:52:12.342Z,85.68
2022-12-03T15:54:40.751Z,85.51
2022-12-03T15:57:09.137Z,85.70
2022-12-03T15:59:37.424Z,85.73
2022-12-03T16:02:05.921Z,85.72
2022-12-03T16:04:34.357Z,85.74
2022-12-03T16:07:19.270Z,85.82
2022-12-03T16:09:47.642Z,85.99
2022-12-03T16:12:15.956Z,85.51
2022-12-03T16:14:44.308Z,85.71
2022-12-03T16:17:12.703Z,85.81
2022-12-03T16:19:41.022Z,85.72
2022-12-03T16:22:09.352Z,86.13
2022-12-03T16:24:39.118Z,85.81
2022-12-03T16:27:07.969Z,85.88
2022-12-03T16:29:36.400Z,86.13
2022-12-03T16:32:04.778Z,85.97
2022-12-03T16:34:33.112Z,86.13
2022-12-03T16:37:01.455Z,85.86
2022-12-03T16:39:29.792Z,85.64
2022-12-03T16:41:59.501Z,86.03
2022-12-03T16:44:53.843Z,86.02
2022-12-03T16:47:23.248Z,86.12
2022-12-03T16:49:51.952Z,85.94
2022-12-03T16:52:20.549Z,86.00
2022-12-03T16:54:48.965Z,85.67
2022-12-03T16:57:18.671Z,85.98
2022-12-03T16:59:46.959Z,85.93
2022-12-03T17:02:15.589Z,85.86
2022-12-03T17:04:44.047Z,86.03
2022-12-03T17:07:12.439Z,85.86
2022-12-03T17:09:40.746Z,86.01
2022-12-03T17:12:09.355Z,85.98
2022-12-03T17:14:39.153Z,85.75
2022-12-03T17:17:07.459Z,85.71
2022-12-03T17:19:36.020Z,85.77
2022-12-03T17:22:06.063Z,85.71
2022-12-03T17:24:34.759Z,85.74
2022-12-03T17:27:05.963Z,86.02
2022-12-03T17:29:34.379Z,85.82
2022-12-03T17:32:04.171Z,85.56
2022-12-03T17:34:32.633Z,85.92
2022-12-03T17:37:01.013Z,86.16
2022-12-03T17:39:30.174Z,85.88
2022-12-03T17:41:58.531Z,86.26
2022-12-03T17:44:26.876Z,86.03
2022-12-03T17:46:55.305Z,86.10
2022-12-03T17:49:29.996Z,86.22
2022-12-03T17:52:00.049Z,86.15
2022-12-03T17:54:48.989Z,86.19
2022-12-03T17:57:16.831Z,86.18
2022-12-03T17:59:45.204Z,85.95
2022-12-03T18:02:13.918Z,86.27
2022-12-03T18:04:43.769Z,86.14
2022-12-03T18:07:12.407Z,86.06
2022-12-03T18:09:40.726Z,86.09
2022-12-03T18:12:09.156Z,86.10
2022-12-03T18:14:37.488Z,86.17
2022-12-03T18:17:05.946Z,86.14
2022-12-03T18:19:34.329Z,86.03
2022-12-03T18:22:04.105Z,86.13
2022-12-03T18:24:32.464Z,86.09
2022-12-03T18:27:00.780Z,86.12
2022-12-03T18:29:29.129Z,86.36
2022-12-03T18:31:57.401Z,86.04
2022-12-03T18:34:25.896Z,85.96
2022-12-03T18:36:54.304Z,86.10
2022-12-03T18:39:28.624Z,86.39
2022-12-03T18:41:57.087Z,86.26
2022-12-03T18:44:25.990Z,86.34
2022-12-03T18:46:54.916Z,86.26
2022-12-03T18:49:23.722Z,86.06
2022-12-03T18:51:57.524Z,85.96
2022-12-03T18:54:29.195Z,86.22
2022-12-03T18:56:57.665Z,86.26
2022-12-03T18:59:26.091Z,86.08
2022-12-03T19:01:54.498Z,86.29
2022-12-03T19:04:23.044Z,86.17
2022-12-03T19:06:51.469Z,86.35
2022-12-03T19:09:20.063Z,86.08
2022-12-03T19:11:49.855Z,86.44
2022-12-03T19:14:18.219Z,86.35
2022-12-03T19:16:46.774Z,86.51
2022-12-03T19:19:15.183Z,86.42
2022-12-03T19:21:43.556Z,86.51
2022-12-03T19:24:27.263Z,86.50
2022-12-03T19:26:57.063Z,86.38
2022-12-03T19:29:25.707Z,86.40
2022-12-03T19:31:54.212Z,86.70
2022-12-03T19:34:22.690Z,86.22
2022-12-03T19:36:51.052Z,86.29
2022-12-03T19:39:19.762Z,86.38
2022-12-03T19:41:48.124Z,86.41
2022-12-03T19:44:19.372Z,86.65
2022-12-03T19:46:50.284Z,86.51
2022-12-03T19:49:21.003Z,86.83
2022-12-03T19:51:49.667Z,86.77
2022-12-03T19:54:19.199Z,86.59
2022-12-03T19:56:47.567Z,86.52
2022-12-03T19:59:17.264Z,86.53
2022-12-03T20:01:45.868Z,86.66
2022-12-03T20:04:14.378Z,86.65
2022-12-03T20:06:42.749Z,86.76
2022-12-03T20:09:16.584Z,86.76
2022-12-03T20:11:45.924Z,86.61
2022-12-03T20:14:17.610Z,86.48
2022-12-03T20:16:46.588Z,86.53
2022-12-03T20:19:17.970Z,86.79
2022-12-03T20:21:46.666Z,86.76
2022-12-03T20:24:17.101Z,86.74
2022-12-03T20:26:45.553Z,86.52
2022-12-03T20:29:14.036Z,86.64
2022-12-03T20:31:43.872Z,86.65
2022-12-03T20:34:12.696Z,86.77
2022-12-03T20:36:41.059Z,86.64
2022-12-03T20:39:09.472Z,86.94
2022-12-03T20:41:39.693Z,86.65
2022-12-03T20:44:08.383Z,86.76
2022-12-03T20:46:36.864Z,86.63
2022-12-03T20:49:06.856Z,86.33
2022-12-03T20:51:35.540Z,86.49
2022-12-03T20:54:04.505Z,86.54
2022-12-03T20:56:35.775Z,86.61
2022-12-03T20:59:06.424Z,86.85
2022-12-03T21:01:36.183Z,86.73
2022-12-03T21:04:07.384Z,86.55
2022-12-03T21:06:37.864Z,86.62
2022-12-03T21:09:07.703Z,86.87
2022-12-03T21:11:39.036Z,86.50
2022-12-03T21:14:07.349Z,86.49
2022-12-03T21:17:07.229Z,86.42
2022-12-03T21:19:29.152Z,86.77
2022-12-03T21:21:57.567Z,86.67
2022-12-03T21:24:25.951Z,86.80
2022-12-03T21:26:54.361Z,86.85
2022-12-03T21:29:23.517Z,86.63
2022-12-03T21:31:51.827Z,86.79
2022-12-03T21:34:20.396Z,86.74
2022-12-03T21:36:50.210Z,86.78
2022-12-03T21:39:19.338Z,86.94
2022-12-03T21:42:18.790Z,87.09
2022-12-03T21:44:36.060Z,86.77
2022-12-03T21:47:09.357Z,86.65
2022-12-03T21:49:42.499Z,86.79
2022-12-03T21:52:12.215Z,86.62
2022-12-03T21:54:40.488Z,86.94
2022-12-03T21:57:08.946Z,86.80
2022-12-03T21:59:37.544Z,86.73
2022-12-03T22:02:05.983Z,86.69
2022-12-03T22:04:34.552Z,86.84
2022-12-03T22:07:03.305Z,86.87
2022-12-03T22:09:33.999Z,86.99
2022-12-03T22:12:02.420Z,86.75
2022-12-03T22:14:31.147Z,86.67
2022-12-03T22:16:59.492Z,86.87
2022-12-03T22:19:28.229Z,86.85
2022-12-03T22:21:56.643Z,86.72
2022-12-03T22:24:25.010Z,86.61
2022-12-03T22:26:54.993Z,86.63
2022-12-03T22:29:23.607Z,86.68
2022-12-03T22:31:52.003Z,87.08
2022-12-03T22:34:20.305Z,87.01
2022-12-03T22:36:48.750Z,86.64
2022-12-03T22:39:17.125Z,86.62
2022-12-03T22:41:45.782Z,86.72
2022-12-03T22:44:15.553Z,86.51
2022-12-03T22:46:43.955Z,86.79
2022-12-03T22:49:14.011Z,86.72
2022-12-03T22:51:45.790Z,86.62
2022-12-03T22:54:18.153Z,86.51
2022-12-03T22:56:49.202Z,86.69
2022-12-03T22:59:18.940Z,86.50
2022-12-03T23:01:47.416Z,86.67
2022-12-03T23:04:15.818Z,86.72
2022-12-03T23:06:44.562Z,86.90
2022-12-03T23:09:12.903Z,87.00
2022-12-03T23:11:41.456Z,86.99
2022-12-03T23:14:09.812Z,86.71
2022-12-03T23:16:55.345Z,86.62
2022-12-03T23:19:26.472Z,87.02
2022-12-03T23:21:54.827Z,86.76
2022-12-03T23:24:23.109Z,87.04
2022-12-03T23:26:51.434Z,86.62
2022-12-03T23:29:19.767Z,86.80
2022-12-03T23:31:49.549Z,86.75
2022-12-03T23:34:17.994Z,86.80
2022-12-03T23:36:46.368Z,87.01
2022-12-03T23:39:14.708Z,86.99
2022-12-03T23:41:42.993Z,87.01
2022-12-03T23:44:11.347Z,86.70
2022-12-03T23:46:40.560Z,86.91
2022-12-03T23:49:10.455Z,86.97
2022-12-03T23:51:39.425Z,86.99
2022-12-03T23:54:07.736Z,87.12
2022-12-03T23:56:36.048Z,87.13
2022-12-03T23:59:04.610Z,87.22
